Aérodrome :
LOGIN :

S'inscrire | Disclaimer

   EN    FR    IT 

 










Légende :    VFR   VFR Marginal   IFR   IFR Intensif   IFR Très Intensif
Visi : 
Plafond : 
>= 8 km
>= 3000ft
5 à 8 km
1000 à 3000 ft
1500m à 5 km
500 à 1000 ft
800 à 1500m
200 à 500 ft
< 800m
< 200 ft
Symboles :   Orages  Brouillard  Fortes neiges  Fortes précipitations  Vent > 20 kt
SIGMETs :   Divers  Orages  Givrage  Turbulence  Onde Orograph.  Cendres Volcan.






- Altitude de l'aérodrome : 489 ft
- Code IATA : GDN


EPGD - Gdansk

DERNIER METAR :
  • 190630Z 23007KT 9999 SCT008 BKN023 02/00 Q1025

METARs EXPIRÉS :
  • 190600Z 24007KT 9999 FEW009 BKN025 01/00 Q1025
  • 190530Z 24006KT 9999 FEW013 SCT016 01/M00 Q1024
  • 190500Z 23008KT 220V290 9999 FEW014 BKN020 01/M00 Q1024
  • 190430Z 23007KT 9999 FEW022 01/M00 Q1024
  • 190400Z 24006KT CAVOK 01/M00 Q1024

TAF TAF EPGD
Valide du 19 à 06h jusqu'au 20 à 06h UTC


190530Z 1906/2006 24008KT 9999 BKN012 OVC020
TEMPO 1906/1910 BKN006 OVC012
PROB30 1906/1909 3500 BR BKN003
BECMG 1910/1912 BKN025
PROB40
TEMPO 1918/2006 4000 BR BKN006



MET'MAP, la Météo Aéronautique d'un coup d'oeil ! - Copyright ORBIFLY Décembre 2007 - Disclaimer

ORBIFLY MET'MAP TEAM :

Programmation & Développement : Alexandra Zaïnal
Sur une idée originale de : Baudouin d'Aumeries
Assistance à la programmation : Marc-Olivier Méhu
Soutien technique & logistique : Manuel Goepfert

Contact : metmap@orbifly.com




SOURCES & CREDITS :

   NOAA